Triple S — V2QN7 — position and weather

sailwx.info

Track history (hours):
 
Tides and Currents Weather Stations Pressure Air Temp Water Temp Dewpoint Dewpoint Depression Visibility Wind Speed Wind Dir Waves Ship Positions

Triple S

Last reported at 2017-Sep-16 21:30 UTC. Time now 2017-Sep-19 11:49 UTC.
Position N 37°37' E 024°05'.

Length 90 m; draft 3.8 m.

Type: Cargo ship. MMSI: 305948000.

Date/timePositionNaut miles runAvg speedWind from/ knotsBaromVisibWave heightAir tempDewpointWater temp
2017-Sep-16 21:30N 37°37' E 024°05'5 9.6
2017-Sep-16 20:56N 37°37' E 023°58'4 9.2
2017-Sep-16 20:30N 37°37' E 023°54'5 9.3
2017-Sep-16 20:00N 37°39' E 023°48'5 9.2
2017-Sep-16 19:30N 37°40' E 023°43'5 9.4
2017-Sep-16 19:00N 37°44' E 023°40'5 9.0
2017-Sep-16 18:30N 37°48' E 023°37'4 8.4
2017-Sep-16 18:00N 37°50' E 023°32'5 9.0
2017-Sep-16 17:30N 37°51' E 023°27'4 9.0
2017-Sep-16 17:00N 37°52' E 023°21'5 9.0
2017-Sep-16 16:31N 37°52' E 023°15'5 9.0
2017-Sep-16 16:00N 37°53' E 023°10'5 9.0
2017-Sep-16 15:31N 37°54' E 023°04'  
2017-Sep-14 00:38N 36°34' E 015°06'110.6
2017-Sep-14 00:30N 36°34' E 015°04'710.9
2017-Sep-13 23:53N 36°35' E 014°56'410.5
2017-Sep-13 23:30N 36°35' E 014°51'510.4
2017-Sep-13 23:00N 36°37' E 014°44'510.2
2017-Sep-13 22:30N 36°38' E 014°38'510.0
2017-Sep-13 22:00N 36°40' E 014°32'5 9.8
2017-Sep-13 21:30N 36°42' E 014°27'5 9.6
2017-Sep-13 21:00N 36°43' E 014°21'5 9.7
2017-Sep-13 20:30N 36°45' E 014°16'5 9.9
2017-Sep-13 20:00N 36°48' E 014°10'510.1
2017-Sep-13 19:30N 36°50' E 014°05'510.8
2017-Sep-13 19:00N 36°53' E 013°59'611.0
2017-Sep-13 18:30N 36°55' E 013°53'511.0
2017-Sep-13 18:00N 36°58' E 013°47'511.0
2017-Sep-13 17:30N 37°01' E 013°41'611.0
2017-Sep-13 17:00N 37°03' E 013°35'611.0
2017-Sep-13 16:30N 37°06' E 013°29'710.7
2017-Sep-13 15:51N 37°09' E 013°21'710.7
2017-Sep-13 15:13N 37°11' E 013°13'210.6
2017-Sep-13 15:00N 37°11' E 013°10'510.6
2017-Sep-13 14:30N 37°12' E 013°03'610.4
2017-Sep-13 13:56N 37°13' E 012°56'510.6
2017-Sep-13 13:30N 37°13' E 012°50'510.5
2017-Sep-13 13:00N 37°14' E 012°44'510.5
2017-Sep-13 12:30N 37°14' E 012°37'510.0
2017-Sep-13 12:00N 37°14' E 012°31'5 9.9
2017-Sep-13 11:30N 37°14' E 012°25'7 9.9
2017-Sep-13 10:47N 37°14' E 012°16'295 9.6
2017-Sep-12 04:14N 37°13' E 006°06'410.1
2017-Sep-12 03:49N 37°13' E 006°00'4 9.9
2017-Sep-12 03:24N 37°12' E 005°55'810.0
2017-Sep-12 02:37N 37°12' E 005°45'110.4
2017-Sep-12 02:30N 37°12' E 005°44'510.6
2017-Sep-12 02:00N 37°12' E 005°37'4910.1
2017-Sep-11 21:08N 37°07' E 004°35'510.0
2017-Sep-11 20:38N 37°07' E 004°29'410.1
2017-Sep-11 20:13N 37°07' E 004°24'210.1
2017-Sep-11 20:00N 37°07' E 004°21'510.0
2017-Sep-11 19:30N 37°06' E 004°15'5 9.8
2017-Sep-11 19:00N 37°06' E 004°09'11 9.8
2017-Sep-11 17:55N 37°05' E 003°56'4 9.7
2017-Sep-11 17:30N 37°04' E 003°51'5 9.6
2017-Sep-11 17:00N 37°04' E 003°45'5 9.8
2017-Sep-11 16:30N 37°03' E 003°39'144 9.9
2017-Sep-11 01:56N 36°35' E 000°41'7 9.8
2017-Sep-11 01:15N 36°35' E 000°33'27110.0
2017-Sep-09 22:13N 35°58' W 004°60'411.9
2017-Sep-09 21:55N 35°57' W 005°04'512.1
2017-Sep-09 21:28N 35°56' W 005°11'511.9
2017-Sep-09 21:00N 35°56' W 005°18'2 4.3
2017-Sep-09 20:30N 35°54' W 005°19'0 0.0
2017-Sep-09 19:58N 35°54' W 005°19'0 0.0
2017-Sep-09 19:28N 35°54' W 005°19'0 0.0
2017-Sep-09 18:58N 35°54' W 005°19'0 0.0
2017-Sep-09 18:28N 35°54' W 005°19'0 0.0
2017-Sep-09 17:58N 35°54' W 005°19'0 0.0
2017-Sep-09 17:28N 35°54' W 005°19'0 0.0
2017-Sep-09 16:58N 35°54' W 005°19'0 0.0
2017-Sep-09 16:30N 35°54' W 005°19'1 1.2
2017-Sep-09 16:00N 35°54' W 005°19'0 1.0
2017-Sep-09 15:30N 35°55' W 005°19'0 0.7
2017-Sep-09 15:00N 35°55' W 005°19'1 1.9
2017-Sep-09 14:30N 35°55' W 005°20'0 0.1
2017-Sep-09 13:58N 35°55' W 005°20'0 0.0
2017-Sep-09 13:28N 35°55' W 005°20'0 0.0
2017-Sep-09 12:58N 35°55' W 005°20'0 0.0
2017-Sep-09 12:28N 35°55' W 005°20'0 0.0
2017-Sep-09 11:58N 35°55' W 005°20'0 0.0
2017-Sep-09 11:28N 35°55' W 005°20'0 0.0
2017-Sep-09 10:58N 35°55' W 005°20'0 0.1
2017-Sep-09 10:28N 35°55' W 005°20'0 0.1
2017-Sep-09 09:55N 35°55' W 005°20'0 0.3
2017-Sep-09 09:28N 35°55' W 005°20'0 0.1
2017-Sep-09 08:58N 35°55' W 005°21'0 0.1
2017-Sep-09 08:28N 35°55' W 005°21'0 0.0
2017-Sep-09 07:58N 35°55' W 005°21'0 0.3
2017-Sep-09 07:28N 35°55' W 005°20'0 0.1
2017-Sep-09 06:58N 35°55' W 005°20'0 0.5
2017-Sep-09 06:30N 35°55' W 005°20'3 5.7
2017-Sep-09 06:00N 35°57' W 005°23'5 9.1
2017-Sep-09 05:30N 35°57' W 005°29'510.2
2017-Sep-09 05:00N 35°56' W 005°35'611.0
2017-Sep-09 04:28N 35°55' W 005°42'611.3
2017-Sep-09 03:54N 35°55' W 005°50'510.5
2017-Sep-09 03:24N 35°55' W 005°56'20 9.7
2017-Sep-09 01:19N 35°56' W 006°21'14 9.9
2017-Sep-08 23:55N 35°60' W 006°38'410.1
2017-Sep-08 23:30N 36°01' W 006°43'510.1
2017-Sep-08 23:00N 36°02' W 006°49'810.2
2017-Sep-08 22:15N 36°04' W 006°58'210.1
2017-Sep-08 22:00N 36°05' W 007°01'5 9.9
2017-Sep-08 21:30N 36°06' W 007°07'5 9.9
2017-Sep-08 21:00N 36°07' W 007°13'510.0
2017-Sep-08 20:30N 36°09' W 007°19'6 9.9
2017-Sep-08 19:54N 36°10' W 007°26'4 9.6
2017-Sep-08 19:30N 36°11' W 007°30'5 9.5
2017-Sep-08 19:00N 36°13' W 007°36'5 9.4
2017-Sep-08 18:30N 36°14' W 007°41'5 9.4
2017-Sep-08 18:00N 36°15' W 007°47'5 9.6
2017-Sep-08 17:30N 36°17' W 007°53'33 9.8
2017-Sep-08 14:06N 36°25' W 008°33'1 9.9
2017-Sep-08 14:00N 36°25' W 008°34'510.1
2017-Sep-08 13:29N 36°27' W 008°40'5 9.8
2017-Sep-08 13:00N 36°28' W 008°46'5 9.8
2017-Sep-08 12:30N 36°29' W 008°52'5 9.9
2017-Sep-08 12:00N 36°30' W 008°58'5 9.8
2017-Sep-08 11:30N 36°32' W 009°04'5 9.9
2017-Sep-08 11:00N 36°33' W 009°10'5 9.8
2017-Sep-08 10:30N 36°35' W 009°16'5 9.4
2017-Sep-08 10:00N 36°37' W 009°20'5 9.3
2017-Sep-08 09:30N 36°40' W 009°24'5 9.1
2017-Sep-08 09:00N 36°44' W 009°29'5 9.0
2017-Sep-08 08:30N 36°47' W 009°31'5 9.7
2017-Sep-08 08:00N 36°52' W 009°33'510.0
2017-Sep-08 07:30N 36°57' W 009°34'510.0
2017-Sep-08 07:00N 37°02' W 009°36'5 9.7
2017-Sep-08 06:30N 37°06' W 009°38'5 9.8
2017-Sep-08 06:00N 37°11' W 009°40'510.0
2017-Sep-08 05:30N 37°16' W 009°41'510.2
2017-Sep-08 05:00N 37°21' W 009°43'5 9.9
2017-Sep-08 04:30N 37°26' W 009°44'5 9.8
2017-Sep-08 04:00N 37°31' W 009°45'5 9.7
2017-Sep-08 03:30N 37°35' W 009°47'5 9.6
2017-Sep-08 03:00N 37°40' W 009°48'5 9.4
2017-Sep-08 02:30N 37°45' W 009°50'5 9.3
2017-Sep-08 02:00N 37°49' W 009°51'4 8.9
2017-Sep-08 01:30N 37°53' W 009°52'5 9.4
2017-Sep-08 01:00N 37°58' W 009°53'5 9.3
2017-Sep-08 00:30N 38°02' W 009°55'5 9.4
2017-Sep-08 00:00N 38°07' W 009°57'5 9.8
2017-Sep-07 23:30N 38°12' W 009°58'5 9.9
2017-Sep-07 23:00N 38°17' W 009°60'5 9.7
2017-Sep-07 22:30N 38°21' W 010°01'5 9.9
2017-Sep-07 22:00N 38°26' W 010°02'5 9.9
2017-Sep-07 21:30N 38°31' W 010°04'5 9.7
2017-Sep-07 21:00N 38°36' W 010°05'5 9.4
2017-Sep-07 20:30N 38°40' W 010°06'5 9.4
2017-Sep-07 20:00N 38°45' W 010°07'5 9.9
2017-Sep-07 19:30N 38°50' W 010°07'510.1
2017-Sep-07 19:00N 38°55' W 010°07'510.2
2017-Sep-07 18:30N 39°00' W 010°06'510.1
2017-Sep-07 18:00N 39°05' W 010°06'510.2
2017-Sep-07 17:30N 39°10' W 010°07'5 9.8
2017-Sep-07 17:00N 39°15' W 010°07'5 9.1
2017-Sep-07 16:31N 39°20' W 010°07'5 9.5
2017-Sep-07 16:00N 39°24' W 010°07'5 9.4
2017-Sep-07 15:31N 39°29' W 010°07'5 9.5
2017-Sep-07 15:00N 39°34' W 010°06'5 9.5
2017-Sep-07 14:30N 39°39' W 010°06'5 9.4
2017-Sep-07 14:00N 39°43' W 010°06'5 9.3
2017-Sep-07 13:30N 39°48' W 010°06'5 9.4
2017-Sep-07 13:00N 39°53' W 010°06'5 9.3
2017-Sep-07 12:30N 39°57' W 010°06'5 9.5
2017-Sep-07 11:59N 40°02' W 010°06'7 9.4
2017-Sep-07 11:14N 40°09' W 010°06'2 8.9
2017-Sep-07 11:00N 40°12' W 010°06'4 8.8
2017-Sep-07 10:29N 40°16' W 010°06'4 9.3
2017-Sep-07 10:00N 40°20' W 010°06'5 9.5
2017-Sep-07 09:30N 40°25' W 010°06'63 9.5
2017-Sep-07 02:54N 41°28' W 010°07'4 9.9
2017-Sep-07 02:30N 41°32' W 010°07'7 9.8
2017-Sep-07 01:48N 41°39' W 010°08'  
Track history (hours):
 
Tides and Currents Weather Stations Pressure Air Temp Water Temp Dewpoint Dewpoint Depression Visibility Wind Speed Wind Dir Waves Ship Positions

Triple S

Last reported at 2017-Sep-16 21:30 UTC. Time now 2017-Sep-19 11:50 UTC.
Position N 37°37' E 024°05'.

Length 90 m; draft 3.8 m.

Type: Cargo ship. MMSI: 305948000.

Date/timePositionNaut miles runAvg speedWind from/ knotsBaromVisibWave heightAir tempDewpointWater temp
2017-Sep-16 21:30N 37°37' E 024°05'5 9.6
2017-Sep-16 20:56N 37°37' E 023°58'4 9.2
2017-Sep-16 20:30N 37°37' E 023°54'5 9.3
2017-Sep-16 20:00N 37°39' E 023°48'5 9.2
2017-Sep-16 19:30N 37°40' E 023°43'5 9.4
2017-Sep-16 19:00N 37°44' E 023°40'5 9.0
2017-Sep-16 18:30N 37°48' E 023°37'4 8.4
2017-Sep-16 18:00N 37°50' E 023°32'5 9.0
2017-Sep-16 17:30N 37°51' E 023°27'4 9.0
2017-Sep-16 17:00N 37°52' E 023°21'5 9.0
2017-Sep-16 16:31N 37°52' E 023°15'5 9.0
2017-Sep-16 16:00N 37°53' E 023°10'5 9.0
2017-Sep-16 15:31N 37°54' E 023°04'  
2017-Sep-14 00:38N 36°34' E 015°06'110.6
2017-Sep-14 00:30N 36°34' E 015°04'710.9
2017-Sep-13 23:53N 36°35' E 014°56'410.5
2017-Sep-13 23:30N 36°35' E 014°51'510.4
2017-Sep-13 23:00N 36°37' E 014°44'510.2
2017-Sep-13 22:30N 36°38' E 014°38'510.0
2017-Sep-13 22:00N 36°40' E 014°32'5 9.8
2017-Sep-13 21:30N 36°42' E 014°27'5 9.6
2017-Sep-13 21:00N 36°43' E 014°21'5 9.7
2017-Sep-13 20:30N 36°45' E 014°16'5 9.9
2017-Sep-13 20:00N 36°48' E 014°10'510.1
2017-Sep-13 19:30N 36°50' E 014°05'510.8
2017-Sep-13 19:00N 36°53' E 013°59'611.0
2017-Sep-13 18:30N 36°55' E 013°53'511.0
2017-Sep-13 18:00N 36°58' E 013°47'511.0
2017-Sep-13 17:30N 37°01' E 013°41'611.0
2017-Sep-13 17:00N 37°03' E 013°35'611.0
2017-Sep-13 16:30N 37°06' E 013°29'710.7
2017-Sep-13 15:51N 37°09' E 013°21'710.7
2017-Sep-13 15:13N 37°11' E 013°13'210.6
2017-Sep-13 15:00N 37°11' E 013°10'510.6
2017-Sep-13 14:30N 37°12' E 013°03'610.4
2017-Sep-13 13:56N 37°13' E 012°56'510.6
2017-Sep-13 13:30N 37°13' E 012°50'510.5
2017-Sep-13 13:00N 37°14' E 012°44'510.5
2017-Sep-13 12:30N 37°14' E 012°37'510.0
2017-Sep-13 12:00N 37°14' E 012°31'5 9.9
2017-Sep-13 11:30N 37°14' E 012°25'7 9.9
2017-Sep-13 10:47N 37°14' E 012°16'295 9.6
2017-Sep-12 04:14N 37°13' E 006°06'410.1
2017-Sep-12 03:49N 37°13' E 006°00'4 9.9
2017-Sep-12 03:24N 37°12' E 005°55'810.0
2017-Sep-12 02:37N 37°12' E 005°45'110.4
2017-Sep-12 02:30N 37°12' E 005°44'510.6
2017-Sep-12 02:00N 37°12' E 005°37'4910.1
2017-Sep-11 21:08N 37°07' E 004°35'510.0
2017-Sep-11 20:38N 37°07' E 004°29'410.1
2017-Sep-11 20:13N 37°07' E 004°24'210.1
2017-Sep-11 20:00N 37°07' E 004°21'510.0
2017-Sep-11 19:30N 37°06' E 004°15'5 9.8
2017-Sep-11 19:00N 37°06' E 004°09'11 9.8
2017-Sep-11 17:55N 37°05' E 003°56'4 9.7
2017-Sep-11 17:30N 37°04' E 003°51'5 9.6
2017-Sep-11 17:00N 37°04' E 003°45'5 9.8
2017-Sep-11 16:30N 37°03' E 003°39'144 9.9
2017-Sep-11 01:56N 36°35' E 000°41'7 9.8
2017-Sep-11 01:15N 36°35' E 000°33'27110.0
2017-Sep-09 22:13N 35°58' W 004°60'411.9
2017-Sep-09 21:55N 35°57' W 005°04'512.1
2017-Sep-09 21:28N 35°56' W 005°11'511.9
2017-Sep-09 21:00N 35°56' W 005°18'2 4.3
2017-Sep-09 20:30N 35°54' W 005°19'0 0.0
2017-Sep-09 19:58N 35°54' W 005°19'0 0.0
2017-Sep-09 19:28N 35°54' W 005°19'0 0.0
2017-Sep-09 18:58N 35°54' W 005°19'0 0.0
2017-Sep-09 18:28N 35°54' W 005°19'0 0.0
2017-Sep-09 17:58N 35°54' W 005°19'0 0.0
2017-Sep-09 17:28N 35°54' W 005°19'0 0.0
2017-Sep-09 16:58N 35°54' W 005°19'0 0.0
2017-Sep-09 16:30N 35°54' W 005°19'1 1.2
2017-Sep-09 16:00N 35°54' W 005°19'0 1.0
2017-Sep-09 15:30N 35°55' W 005°19'0 0.7
2017-Sep-09 15:00N 35°55' W 005°19'1 1.9
2017-Sep-09 14:30N 35°55' W 005°20'0 0.1
2017-Sep-09 13:58N 35°55' W 005°20'0 0.0
2017-Sep-09 13:28N 35°55' W 005°20'0 0.0
2017-Sep-09 12:58N 35°55' W 005°20'0 0.0
2017-Sep-09 12:28N 35°55' W 005°20'0 0.0
2017-Sep-09 11:58N 35°55' W 005°20'0 0.0
2017-Sep-09 11:28N 35°55' W 005°20'0 0.0
2017-Sep-09 10:58N 35°55' W 005°20'0 0.1
2017-Sep-09 10:28N 35°55' W 005°20'0 0.1
2017-Sep-09 09:55N 35°55' W 005°20'0 0.3
2017-Sep-09 09:28N 35°55' W 005°20'0 0.1
2017-Sep-09 08:58N 35°55' W 005°21'0 0.1
2017-Sep-09 08:28N 35°55' W 005°21'0 0.0
2017-Sep-09 07:58N 35°55' W 005°21'0 0.3
2017-Sep-09 07:28N 35°55' W 005°20'0 0.1
2017-Sep-09 06:58N 35°55' W 005°20'0 0.5
2017-Sep-09 06:30N 35°55' W 005°20'3 5.7
2017-Sep-09 06:00N 35°57' W 005°23'5 9.1
2017-Sep-09 05:30N 35°57' W 005°29'510.2
2017-Sep-09 05:00N 35°56' W 005°35'611.0
2017-Sep-09 04:28N 35°55' W 005°42'611.3
2017-Sep-09 03:54N 35°55' W 005°50'510.5
2017-Sep-09 03:24N 35°55' W 005°56'20 9.7
2017-Sep-09 01:19N 35°56' W 006°21'14 9.9
2017-Sep-08 23:55N 35°60' W 006°38'410.1
2017-Sep-08 23:30N 36°01' W 006°43'510.1
2017-Sep-08 23:00N 36°02' W 006°49'810.2
2017-Sep-08 22:15N 36°04' W 006°58'210.1
2017-Sep-08 22:00N 36°05' W 007°01'5 9.9
2017-Sep-08 21:30N 36°06' W 007°07'5 9.9
2017-Sep-08 21:00N 36°07' W 007°13'510.0
2017-Sep-08 20:30N 36°09' W 007°19'6 9.9
2017-Sep-08 19:54N 36°10' W 007°26'4 9.6
2017-Sep-08 19:30N 36°11' W 007°30'5 9.5
2017-Sep-08 19:00N 36°13' W 007°36'5 9.4
2017-Sep-08 18:30N 36°14' W 007°41'5 9.4
2017-Sep-08 18:00N 36°15' W 007°47'5 9.6
2017-Sep-08 17:30N 36°17' W 007°53'33 9.8
2017-Sep-08 14:06N 36°25' W 008°33'1 9.9
2017-Sep-08 14:00N 36°25' W 008°34'510.1
2017-Sep-08 13:29N 36°27' W 008°40'5 9.8
2017-Sep-08 13:00N 36°28' W 008°46'5 9.8
2017-Sep-08 12:30N 36°29' W 008°52'5 9.9
2017-Sep-08 12:00N 36°30' W 008°58'5 9.8
2017-Sep-08 11:30N 36°32' W 009°04'5 9.9
2017-Sep-08 11:00N 36°33' W 009°10'5 9.8
2017-Sep-08 10:30N 36°35' W 009°16'5 9.4
2017-Sep-08 10:00N 36°37' W 009°20'5 9.3
2017-Sep-08 09:30N 36°40' W 009°24'5 9.1
2017-Sep-08 09:00N 36°44' W 009°29'5 9.0
2017-Sep-08 08:30N 36°47' W 009°31'5 9.7
2017-Sep-08 08:00N 36°52' W 009°33'510.0
2017-Sep-08 07:30N 36°57' W 009°34'510.0
2017-Sep-08 07:00N 37°02' W 009°36'5 9.7
2017-Sep-08 06:30N 37°06' W 009°38'5 9.8
2017-Sep-08 06:00N 37°11' W 009°40'510.0
2017-Sep-08 05:30N 37°16' W 009°41'510.2
2017-Sep-08 05:00N 37°21' W 009°43'5 9.9
2017-Sep-08 04:30N 37°26' W 009°44'5 9.8
2017-Sep-08 04:00N 37°31' W 009°45'5 9.7
2017-Sep-08 03:30N 37°35' W 009°47'5 9.6
2017-Sep-08 03:00N 37°40' W 009°48'5 9.4
2017-Sep-08 02:30N 37°45' W 009°50'5 9.3
2017-Sep-08 02:00N 37°49' W 009°51'4 8.9
2017-Sep-08 01:30N 37°53' W 009°52'5 9.4
2017-Sep-08 01:00N 37°58' W 009°53'5 9.3
2017-Sep-08 00:30N 38°02' W 009°55'5 9.4
2017-Sep-08 00:00N 38°07' W 009°57'5 9.8
2017-Sep-07 23:30N 38°12' W 009°58'5 9.9
2017-Sep-07 23:00N 38°17' W 009°60'5 9.7
2017-Sep-07 22:30N 38°21' W 010°01'5 9.9
2017-Sep-07 22:00N 38°26' W 010°02'5 9.9
2017-Sep-07 21:30N 38°31' W 010°04'5 9.7
2017-Sep-07 21:00N 38°36' W 010°05'5 9.4
2017-Sep-07 20:30N 38°40' W 010°06'5 9.4
2017-Sep-07 20:00N 38°45' W 010°07'5 9.9
2017-Sep-07 19:30N 38°50' W 010°07'510.1
2017-Sep-07 19:00N 38°55' W 010°07'510.2
2017-Sep-07 18:30N 39°00' W 010°06'510.1
2017-Sep-07 18:00N 39°05' W 010°06'510.2
2017-Sep-07 17:30N 39°10' W 010°07'5 9.8
2017-Sep-07 17:00N 39°15' W 010°07'5 9.1
2017-Sep-07 16:31N 39°20' W 010°07'5 9.5
2017-Sep-07 16:00N 39°24' W 010°07'5 9.4
2017-Sep-07 15:31N 39°29' W 010°07'5 9.5
2017-Sep-07 15:00N 39°34' W 010°06'5 9.5
2017-Sep-07 14:30N 39°39' W 010°06'5 9.4
2017-Sep-07 14:00N 39°43' W 010°06'5 9.3
2017-Sep-07 13:30N 39°48' W 010°06'5 9.4
2017-Sep-07 13:00N 39°53' W 010°06'5 9.3
2017-Sep-07 12:30N 39°57' W 010°06'5 9.5
2017-Sep-07 11:59N 40°02' W 010°06'7 9.4
2017-Sep-07 11:14N 40°09' W 010°06'2 8.9
2017-Sep-07 11:00N 40°12' W 010°06'4 8.8
2017-Sep-07 10:29N 40°16' W 010°06'4 9.3
2017-Sep-07 10:00N 40°20' W 010°06'5 9.5
2017-Sep-07 09:30N 40°25' W 010°06'63 9.5
2017-Sep-07 02:54N 41°28' W 010°07'4 9.9
2017-Sep-07 02:30N 41°32' W 010°07'7 9.8
2017-Sep-07 01:48N 41°39' W 010°08'  

Dump ship's entire track history